RUK693 EGCC-LOWW
Flight info
| Callsign | RUK693 |
|---|---|
| Flight time | N/A |
| Altitude | 35000 |
| Route | DESIG L603 LAMSO DCT EVELI DCT RKN DCT KUMER DCT GALMA DCT TALEG L620 PIKIB DCT OMELO DCT EVIKU DCT BITSI DCT MIKOV MIKOV8W |
| Aircraft | B738/M-SDE2E3FGHIRWXY/LB1 |
Departure
| Time | 2026-05-05 18:08 |
|---|---|
| Airport | Manchester Airport (EGCC) |
Arrival
| Time | N/A |
|---|---|
| Airport | Vienna International Airport (LOWW) |
| Time | Latitude | Longitude | Altitude | Speed | Heading |
|---|---|---|---|---|---|
| 2026-05-05 17:39 | 53.36145 | -2.26687 | 254 ft | 0 kts | 326° |
| 2026-05-05 17:55 | 53.36127 | -2.26666 | 254 ft | 4 kts | 326° |
| 2026-05-05 17:55 | 53.36108 | -2.26643 | 254 ft | 4 kts | 312° |
| 2026-05-05 17:56 | 53.36096 | -2.26607 | 254 ft | 4 kts | 271° |
| 2026-05-05 17:56 | 53.36102 | -2.26566 | 254 ft | 4 kts | 238° |
| 2026-05-05 17:56 | 53.36118 | -2.26530 | 254 ft | 3 kts | 231° |
| 2026-05-05 17:56 | 53.36134 | -2.26496 | 254 ft | 4 kts | 231° |
| 2026-05-05 17:57 | 53.36149 | -2.26465 | 254 ft | 1 kts | 231° |
| 2026-05-05 18:00 | 53.36145 | -2.26474 | 254 ft | 3 kts | 231° |
| 2026-05-05 18:00 | 53.36115 | -2.26537 | 254 ft | 10 kts | 231° |
| 2026-05-05 18:00 | 53.36063 | -2.26670 | 254 ft | 17 kts | 237° |
| 2026-05-05 18:01 | 53.35970 | -2.26732 | 255 ft | 15 kts | 171° |
| 2026-05-05 18:01 | 53.35900 | -2.26839 | 255 ft | 14 kts | 238° |
| 2026-05-05 18:01 | 53.35841 | -2.26967 | 255 ft | 14 kts | 237° |
| 2026-05-05 18:01 | 53.35793 | -2.27097 | 254 ft | 13 kts | 231° |
| 2026-05-05 18:02 | 53.35732 | -2.27222 | 254 ft | 16 kts | 231° |
| 2026-05-05 18:02 | 53.35649 | -2.27395 | 248 ft | 23 kts | 231° |
| 2026-05-05 18:02 | 53.35554 | -2.27591 | 241 ft | 18 kts | 231° |
| 2026-05-05 18:02 | 53.35468 | -2.27775 | 238 ft | 19 kts | 243° |
| 2026-05-05 18:03 | 53.35418 | -2.27982 | 236 ft | 21 kts | 224° |
| 2026-05-05 18:03 | 53.35313 | -2.28152 | 233 ft | 22 kts | 224° |
| 2026-05-05 18:03 | 53.35204 | -2.28358 | 230 ft | 25 kts | 231° |
| 2026-05-05 18:03 | 53.35088 | -2.28599 | 228 ft | 26 kts | 231° |
| 2026-05-05 18:04 | 53.34972 | -2.28816 | 225 ft | 24 kts | 226° |
| 2026-05-05 18:04 | 53.34861 | -2.29011 | 219 ft | 23 kts | 227° |
| 2026-05-05 18:04 | 53.34786 | -2.29152 | 216 ft | 13 kts | 231° |
| 2026-05-05 18:04 | 53.34724 | -2.29281 | 213 ft | 14 kts | 226° |
| 2026-05-05 18:05 | 53.34674 | -2.29331 | 210 ft | 0 kts | 197° |
| 2026-05-05 18:06 | 53.34635 | -2.29344 | 211 ft | 8 kts | 184° |
| 2026-05-05 18:06 | 53.34568 | -2.29317 | 212 ft | 12 kts | 150° |
| 2026-05-05 18:07 | 53.34560 | -2.29180 | 212 ft | 14 kts | 54° |
| 2026-05-05 18:07 | 53.34590 | -2.29118 | 212 ft | 0 kts | 51° |
| 2026-05-05 18:07 | 53.34685 | -2.28922 | 220 ft | 55 kts | 51° |
| 2026-05-05 18:08 | 53.35071 | -2.28122 | 234 ft | 120 kts | 51° |
| 2026-05-05 18:08 | 53.35707 | -2.26795 | 320 ft | 166 kts | 51° |
| 2026-05-05 18:08 | 53.36449 | -2.25251 | 992 ft | 172 kts | 52° |
| 2026-05-05 18:08 | 53.37227 | -2.23618 | 1630 ft | 185 kts | 52° |
| 2026-05-05 18:09 | 53.38034 | -2.21910 | 2377 ft | 185 kts | 52° |
| 2026-05-05 18:09 | 53.38868 | -2.20143 | 2639 ft | 202 kts | 50° |
| 2026-05-05 18:09 | 53.39774 | -2.18226 | 2791 ft | 218 kts | 50° |
| 2026-05-05 18:09 | 53.40744 | -2.16171 | 3014 ft | 233 kts | 50° |
| 2026-05-05 18:10 | 53.41784 | -2.13967 | 3316 ft | 247 kts | 50° |
| 2026-05-05 18:10 | 53.42859 | -2.11682 | 3876 ft | 251 kts | 50° |
| 2026-05-05 18:10 | 53.43951 | -2.09358 | 4464 ft | 255 kts | 50° |
| 2026-05-05 18:10 | 53.45044 | -2.07033 | 4945 ft | 259 kts | 50° |
| 2026-05-05 18:11 | 53.46168 | -2.04640 | 5091 ft | 263 kts | 50° |
| 2026-05-05 18:11 | 53.47307 | -2.02210 | 5683 ft | 265 kts | 50° |
| 2026-05-05 18:11 | 53.48455 | -1.99766 | 6298 ft | 268 kts | 50° |
| 2026-05-05 18:11 | 53.49627 | -1.97304 | 6891 ft | 272 kts | 50° |
| 2026-05-05 18:12 | 53.50413 | -1.95664 | 7296 ft | 274 kts | 50° |
| 2026-05-05 18:12 | 53.51613 | -1.93157 | 7922 ft | 277 kts | 51° |
| 2026-05-05 18:12 | 53.52565 | -1.90339 | 8504 ft | 282 kts | 72° |
| 2026-05-05 18:12 | 53.52718 | -1.87045 | 9084 ft | 288 kts | 102° |
| 2026-05-05 18:13 | 53.52089 | -1.83852 | 9796 ft | 290 kts | 109° |
| 2026-05-05 18:13 | 53.51389 | -1.80621 | 10277 ft | 300 kts | 109° |
| 2026-05-05 18:13 | 53.50685 | -1.77183 | 10433 ft | 321 kts | 108° |
| 2026-05-05 18:13 | 53.49979 | -1.73504 | 10595 ft | 341 kts | 107° |
| 2026-05-05 18:14 | 53.49265 | -1.69590 | 10744 ft | 360 kts | 106° |
| 2026-05-05 18:14 | 53.48533 | -1.65460 | 10894 ft | 378 kts | 106° |
| 2026-05-05 18:14 | 53.47778 | -1.61168 | 11275 ft | 387 kts | 106° |
| 2026-05-05 18:14 | 53.47010 | -1.56816 | 11848 ft | 390 kts | 106° |
| 2026-05-05 18:15 | 53.46225 | -1.52435 | 12417 ft | 394 kts | 107° |
| 2026-05-05 18:15 | 53.45428 | -1.48017 | 13001 ft | 397 kts | 107° |
| 2026-05-05 18:15 | 53.44622 | -1.43561 | 13577 ft | 401 kts | 107° |
| 2026-05-05 18:15 | 53.43819 | -1.39126 | 14128 ft | 405 kts | 107° |
| 2026-05-05 18:16 | 53.42999 | -1.34600 | 14728 ft | 408 kts | 107° |
| 2026-05-05 18:16 | 53.42158 | -1.29972 | 15319 ft | 411 kts | 107° |
| 2026-05-05 18:16 | 53.41338 | -1.25425 | 15875 ft | 414 kts | 107° |
| 2026-05-05 18:16 | 53.40522 | -1.20770 | 16446 ft | 417 kts | 107° |
| 2026-05-05 18:17 | 53.39686 | -1.16093 | 16995 ft | 421 kts | 108° |
| 2026-05-05 18:17 | 53.38825 | -1.11392 | 17530 ft | 424 kts | 108° |